createdAt,value
2022-10-23T00:00:19.392Z,1303.61
2022-10-23T00:01:19.346Z,1303.61
2022-10-23T00:02:19.380Z,1303.61
2022-10-23T00:03:19.303Z,1303.61
2022-10-23T00:04:19.325Z,1303.61
2022-10-23T00:05:19.315Z,1303.61
2022-10-23T00:06:19.266Z,1303.61
2022-10-23T00:07:19.325Z,1303.61
2022-10-23T00:08:19.279Z,1303.61
2022-10-23T00:09:19.239Z,1303.61
2022-10-23T00:10:19.235Z,1303.61
2022-10-23T00:11:19.217Z,1303.61
2022-10-23T00:12:19.201Z,1303.61
2022-10-23T00:13:19.215Z,1303.61
2022-10-23T00:14:19.181Z,1303.61
2022-10-23T00:15:19.188Z,1303.61
2022-10-23T00:16:19.158Z,1303.61
2022-10-23T00:17:19.152Z,1303.61
2022-10-23T00:18:19.136Z,1303.61
2022-10-23T00:19:19.156Z,1303.61
2022-10-23T00:20:19.132Z,1303.61
2022-10-23T00:21:19.128Z,1303.61
2022-10-23T00:22:19.105Z,1303.61
2022-10-23T00:23:19.101Z,1303.61
2022-10-23T00:24:19.076Z,1303.61
2022-10-23T00:25:19.067Z,1303.61
2022-10-23T00:26:19.074Z,1303.61
2022-10-23T00:27:19.056Z,1303.61
2022-10-23T00:28:19.025Z,1303.61
2022-10-23T00:29:19.024Z,1303.61
2022-10-23T00:30:19.004Z,1303.61
2022-10-23T00:31:19.023Z,1303.61
2022-10-23T00:32:19.008Z,1303.61
2022-10-23T00:33:18.988Z,1303.61
2022-10-23T00:34:18.962Z,1303.61
2022-10-23T00:35:18.953Z,1303.61
2022-10-23T00:36:18.958Z,1303.61
2022-10-23T00:37:18.952Z,1303.61
2022-10-23T00:38:18.916Z,1303.61
2022-10-23T00:39:18.943Z,1303.61
2022-10-23T00:40:18.895Z,1303.61
2022-10-23T00:41:18.926Z,1303.61
2022-10-23T00:42:18.873Z,1303.61
2022-10-23T00:43:18.868Z,1303.61
2022-10-23T00:44:18.867Z,1303.61
2022-10-23T00:45:25.858Z,1303.61
2022-10-23T00:46:18.842Z,1303.61
2022-10-23T00:47:18.822Z,1303.61
2022-10-23T00:48:18.808Z,1303.61
2022-10-23T00:49:18.801Z,1303.61
2022-10-23T00:50:18.785Z,1303.61
2022-10-23T00:51:18.793Z,1303.61
2022-10-23T00:52:18.775Z,1303.61
2022-10-23T00:53:18.805Z,1303.61
2022-10-23T00:54:24.024Z,1303.61
2022-10-23T00:55:19.747Z,1303.61
2022-10-23T00:56:18.734Z,1303.61
2022-10-23T00:57:18.783Z,1303.61
2022-10-23T00:58:18.699Z,1303.61
2022-10-23T00:59:18.696Z,1303.61
2022-10-23T01:00:18.679Z,1303.61
2022-10-23T01:01:18.823Z,1303.61
2022-10-23T01:02:18.687Z,1303.61
2022-10-23T01:03:18.696Z,1303.61
2022-10-23T01:04:18.636Z,1303.61
2022-10-23T01:05:18.629Z,1303.61
2022-10-23T01:06:18.636Z,1303.61
2022-10-23T01:07:18.607Z,1303.61
2022-10-23T01:08:18.588Z,1303.61
2022-10-23T01:09:18.605Z,1303.61
2022-10-23T01:10:18.601Z,1303.61
2022-10-23T01:11:18.562Z,1303.61
2022-10-23T01:12:18.563Z,1303.61
2022-10-23T01:13:18.541Z,1303.61
2022-10-23T01:14:18.524Z,1303.61
2022-10-23T01:15:18.518Z,1303.61
2022-10-23T01:16:18.542Z,1303.61
2022-10-23T01:17:18.511Z,1303.61
2022-10-23T01:18:18.486Z,1303.61
2022-10-23T01:19:18.474Z,1303.61
2022-10-23T01:20:18.459Z,1303.61
2022-10-23T01:21:18.454Z,1303.61
2022-10-23T01:22:18.468Z,1303.61
2022-10-23T01:23:18.486Z,1303.61
2022-10-23T01:24:18.416Z,1303.61
2022-10-23T01:25:18.429Z,1303.61
2022-10-23T01:26:18.395Z,1303.61
2022-10-23T01:27:18.388Z,1303.61
2022-10-23T01:28:18.386Z,1303.61
2022-10-23T01:29:18.366Z,1303.61
2022-10-23T01:30:18.349Z,1303.61
2022-10-23T01:31:18.342Z,1303.61
2022-10-23T01:32:18.347Z,1303.61
2022-10-23T01:33:18.335Z,1303.61
2022-10-23T01:34:18.308Z,1303.61
2022-10-23T01:35:18.354Z,1303.61
2022-10-23T01:36:18.288Z,1303.61
2022-10-23T01:37:18.281Z,1303.61
2022-10-23T01:38:18.274Z,1303.61
2022-10-23T01:39:18.257Z,1303.61
2022-10-23T01:40:18.241Z,1303.61
2022-10-23T01:41:18.255Z,1303.61
2022-10-23T01:42:18.224Z,1303.61
2022-10-23T01:43:18.225Z,1303.61
2022-10-23T01:44:18.200Z,1303.61
2022-10-23T01:45:18.191Z,1303.61
2022-10-23T01:46:18.189Z,1303.61
2022-10-23T01:47:18.217Z,1303.61
2022-10-23T01:48:18.204Z,1303.61
2022-10-23T01:49:18.160Z,1303.61
2022-10-23T01:50:18.146Z,1303.61
2022-10-23T01:51:18.126Z,1303.61
2022-10-23T01:52:18.111Z,1303.61
2022-10-23T01:53:18.109Z,1303.61
2022-10-23T01:54:18.113Z,1303.61
2022-10-23T01:55:18.102Z,1303.61
2022-10-23T01:56:18.066Z,1303.61
2022-10-23T01:57:18.084Z,1303.61
2022-10-23T01:58:18.047Z,1303.61
2022-10-23T01:59:18.051Z,1303.61
2022-10-23T02:00:18.025Z,1303.61
2022-10-23T02:01:18.126Z,1303.61
2022-10-23T02:02:18.017Z,1303.61
2022-10-23T02:03:18.008Z,1303.61
2022-10-23T02:04:17.992Z,1303.61
2022-10-23T02:05:17.974Z,1303.61
2022-10-23T02:06:17.960Z,1303.61
2022-10-23T02:07:17.956Z,1303.61
2022-10-23T02:08:17.974Z,1303.61
2022-10-23T02:09:17.933Z,1303.61
2022-10-23T02:10:17.915Z,1303.61
2022-10-23T02:11:17.908Z,1303.61
2022-10-23T02:12:17.964Z,1303.61
2022-10-23T02:13:17.919Z,1303.61
2022-10-23T02:14:17.925Z,1303.61
2022-10-23T02:15:17.867Z,1303.61
2022-10-23T02:16:17.855Z,1303.61
2022-10-23T02:17:17.842Z,1303.61
2022-10-23T02:18:17.831Z,1303.61
2022-10-23T02:19:17.837Z,1303.61
2022-10-23T02:20:17.818Z,1303.61
2022-10-23T02:21:17.807Z,1303.61
2022-10-23T02:22:17.785Z,1303.61
2022-10-23T02:23:17.782Z,1303.61
2022-10-23T02:24:17.783Z,1303.61
2022-10-23T02:25:17.751Z,1303.61
2022-10-23T02:26:17.772Z,1303.61
2022-10-23T02:27:17.729Z,1303.61
2022-10-23T02:28:17.724Z,1303.61
2022-10-23T02:29:17.744Z,1303.61
2022-10-23T02:30:17.702Z,1303.61
2022-10-23T02:31:17.688Z,1303.61
2022-10-23T02:32:17.679Z,1303.61
2022-10-23T02:33:17.677Z,1303.61
2022-10-23T02:34:17.686Z,1303.61
2022-10-23T02:35:17.641Z,1303.61
2022-10-23T02:36:17.653Z,1303.61
2022-10-23T02:37:17.704Z,1303.61
2022-10-23T02:38:17.613Z,1303.61
2022-10-23T02:39:17.600Z,1303.61
2022-10-23T02:40:17.593Z,1303.61
2022-10-23T02:41:17.587Z,1303.61
2022-10-23T02:42:17.570Z,1303.61
2022-10-23T02:43:17.579Z,1303.61
2022-10-23T02:44:17.563Z,1303.61
2022-10-23T02:45:17.568Z,1303.61
2022-10-23T02:46:25.044Z,1303.61
2022-10-23T02:47:17.510Z,1303.61
2022-10-23T02:48:17.518Z,1303.61
2022-10-23T02:49:17.489Z,1303.61
2022-10-23T02:50:17.483Z,1303.61
2022-10-23T02:51:17.467Z,1303.61
2022-10-23T02:52:17.475Z,1303.61
2022-10-23T02:53:17.445Z,1303.61
2022-10-23T02:54:17.439Z,1303.61
2022-10-23T02:55:17.441Z,1303.61
2022-10-23T02:56:17.434Z,1303.61
2022-10-23T02:57:17.416Z,1303.61
2022-10-23T02:58:17.399Z,1303.61
2022-10-23T02:59:17.381Z,1303.61
2022-10-23T03:00:17.410Z,1303.61
2022-10-23T03:01:17.632Z,1303.61
2022-10-23T03:02:17.545Z,1303.61
2022-10-23T03:03:17.383Z,1303.61
2022-10-23T03:04:17.334Z,1303.61
2022-10-23T03:05:17.333Z,1303.61
2022-10-23T03:06:17.311Z,1303.61
2022-10-23T03:07:17.308Z,1303.61
2022-10-23T03:08:17.291Z,1303.61
2022-10-23T03:09:17.287Z,1303.61
2022-10-23T03:10:17.266Z,1303.61
2022-10-23T03:11:17.251Z,1303.61
2022-10-23T03:12:17.246Z,1303.61
2022-10-23T03:13:17.284Z,1303.61
2022-10-23T03:14:17.222Z,1303.61
2022-10-23T03:15:17.216Z,1303.61
2022-10-23T03:16:17.201Z,1303.61
2022-10-23T03:17:17.204Z,1303.61
2022-10-23T03:18:17.177Z,1303.61
2022-10-23T03:19:17.185Z,1303.61
2022-10-23T03:20:17.160Z,1303.61
2022-10-23T03:21:17.142Z,1303.61
2022-10-23T03:22:17.174Z,1303.61
2022-10-23T03:23:17.141Z,1303.61
2022-10-23T03:24:17.116Z,1303.61
2022-10-23T03:25:17.108Z,1303.61
2022-10-23T03:26:17.094Z,1303.61
2022-10-23T03:27:17.161Z,1303.61
2022-10-23T03:28:17.073Z,1303.61
2022-10-23T03:29:17.067Z,1303.61
2022-10-23T03:30:17.049Z,1303.61
2022-10-23T03:31:17.032Z,1303.61
2022-10-23T03:32:17.058Z,1303.61
2022-10-23T03:33:17.049Z,1303.61
2022-10-23T03:34:17.009Z,1303.61
2022-10-23T03:35:16.989Z,1303.61
2022-10-23T03:36:17.001Z,1303.61
2022-10-23T03:37:16.972Z,1303.61
2022-10-23T03:38:16.976Z,1303.61
2022-10-23T03:39:16.947Z,1303.61
2022-10-23T03:40:16.972Z,1303.61
2022-10-23T03:41:16.925Z,1303.61
2022-10-23T03:42:16.915Z,1303.61
2022-10-23T03:43:16.915Z,1303.61
2022-10-23T03:44:16.896Z,1303.61
2022-10-23T03:45:16.883Z,1303.61
2022-10-23T03:46:16.875Z,1303.61
2022-10-23T03:47:16.857Z,1303.61
2022-10-23T03:48:16.871Z,1303.61
2022-10-23T03:49:16.854Z,1303.61
2022-10-23T03:50:16.829Z,1303.61
2022-10-23T03:51:16.816Z,1303.61
2022-10-23T03:52:16.849Z,1303.61
2022-10-23T03:53:16.803Z,1303.61
2022-10-23T03:54:16.799Z,1303.61
2022-10-23T03:55:16.768Z,1303.61
2022-10-23T03:56:16.768Z,1303.61
2022-10-23T03:57:16.747Z,1303.61
2022-10-23T03:58:16.759Z,1303.61
2022-10-23T03:59:16.730Z,1303.61
2022-10-23T04:00:16.721Z,1303.61
2022-10-23T04:01:16.744Z,1303.61
2022-10-23T04:02:16.730Z,1303.61
2022-10-23T04:03:16.691Z,1303.61
2022-10-23T04:04:16.694Z,1303.61
2022-10-23T04:05:16.684Z,1303.61
2022-10-23T04:06:16.656Z,1303.61
2022-10-23T04:07:16.669Z,1303.61
2022-10-23T04:08:20.009Z,1303.61
2022-10-23T04:09:16.621Z,1303.61
2022-10-23T04:10:16.625Z,1303.61
2022-10-23T04:11:16.636Z,1303.61
2022-10-23T04:12:16.589Z,1303.61
2022-10-23T04:13:16.575Z,1303.61
2022-10-23T04:14:16.571Z,1303.61
2022-10-23T04:15:16.570Z,1303.61
2022-10-23T04:16:16.544Z,1303.61
2022-10-23T04:17:16.580Z,1303.61
2022-10-23T04:18:16.525Z,1303.61
2022-10-23T04:19:16.550Z,1303.61
2022-10-23T04:20:16.514Z,1303.61
2022-10-23T04:21:16.522Z,1303.61
2022-10-23T04:22:16.481Z,1303.61
2022-10-23T04:23:16.478Z,1303.61
2022-10-23T04:24:16.463Z,1303.61
2022-10-23T04:25:16.443Z,1303.61
2022-10-23T04:26:16.452Z,1303.61
2022-10-23T04:27:16.433Z,1303.61
2022-10-23T04:28:16.418Z,1303.61
2022-10-23T04:29:16.403Z,1303.61
2022-10-23T04:30:16.394Z,1303.61
2022-10-23T04:31:16.392Z,1303.61
2022-10-23T04:32:16.376Z,1303.61
2022-10-23T04:33:16.356Z,1303.61
2022-10-23T04:34:16.397Z,1303.61
2022-10-23T04:35:16.345Z,1303.61
2022-10-23T04:36:16.350Z,1303.61
2022-10-23T04:37:16.330Z,1303.61
2022-10-23T04:38:16.309Z,1303.61
2022-10-23T04:39:16.302Z,1303.61
2022-10-23T04:40:16.302Z,1303.61
2022-10-23T04:41:16.270Z,1303.61
2022-10-23T04:42:16.335Z,1303.61
2022-10-23T04:43:16.343Z,1303.61
2022-10-23T04:44:16.242Z,1303.61
2022-10-23T04:45:16.228Z,1303.61
2022-10-23T04:46:16.234Z,1303.61
2022-10-23T04:47:23.716Z,1303.61
2022-10-23T04:48:16.196Z,1303.61
2022-10-23T04:49:16.190Z,1303.61
2022-10-23T04:50:16.177Z,1303.61
2022-10-23T04:51:16.157Z,1303.61
2022-10-23T04:52:16.150Z,1303.61
2022-10-23T04:53:16.192Z,1303.61
2022-10-23T04:54:16.148Z,1303.61
2022-10-23T04:55:16.117Z,1303.61
2022-10-23T04:56:16.109Z,1303.61
2022-10-23T04:57:16.141Z,1303.61
2022-10-23T04:58:16.085Z,1303.61
2022-10-23T04:59:16.072Z,1303.61
2022-10-23T05:00:16.063Z,1303.61
2022-10-23T05:01:16.229Z,1303.61
2022-10-23T05:02:16.043Z,1303.61
2022-10-23T05:03:16.027Z,1303.61
2022-10-23T05:04:16.041Z,1303.61
2022-10-23T05:05:16.009Z,1303.61
2022-10-23T05:06:16.000Z,1303.61
2022-10-23T05:07:16.027Z,1303.61
2022-10-23T05:08:18.057Z,1303.61
2022-10-23T05:09:15.981Z,1303.61
2022-10-23T05:10:15.961Z,1303.61
2022-10-23T05:11:15.943Z,1303.61
2022-10-23T05:12:15.945Z,1303.61
2022-10-23T05:13:15.931Z,1303.61
2022-10-23T05:14:20.551Z,1303.61
2022-10-23T05:15:16.895Z,1303.61
2022-10-23T05:16:15.895Z,1303.61
2022-10-23T05:17:15.889Z,1303.61
2022-10-23T05:18:15.872Z,1303.61
2022-10-23T05:19:15.870Z,1303.61
2022-10-23T05:20:15.847Z,1303.61
2022-10-23T05:21:15.830Z,1303.61
2022-10-23T05:22:15.836Z,1303.61
2022-10-23T05:23:15.808Z,1303.61
2022-10-23T05:24:15.804Z,1303.61
2022-10-23T05:25:15.824Z,1303.61
2022-10-23T05:26:15.792Z,1303.61
2022-10-23T05:27:15.781Z,1303.61
2022-10-23T05:28:15.764Z,1303.61
2022-10-23T05:29:15.743Z,1303.61
2022-10-23T05:30:15.737Z,1303.61
2022-10-23T05:31:15.724Z,1303.61
2022-10-23T05:32:15.849Z,1303.61
2022-10-23T05:33:15.715Z,1303.61
2022-10-23T05:34:15.695Z,1303.61
2022-10-23T05:35:15.680Z,1303.61
2022-10-23T05:36:15.729Z,1303.61
2022-10-23T05:37:15.657Z,1303.61
2022-10-23T05:38:15.671Z,1303.61
2022-10-23T05:39:15.639Z,1303.61
2022-10-23T05:40:15.634Z,1303.61
2022-10-23T05:41:15.635Z,1303.61
2022-10-23T05:42:15.624Z,1303.61
2022-10-23T05:43:15.592Z,1303.61
2022-10-23T05:44:15.588Z,1303.61
2022-10-23T05:45:15.572Z,1303.61
2022-10-23T05:46:15.564Z,1303.61
2022-10-23T05:47:15.550Z,1303.61
2022-10-23T05:48:22.817Z,1303.61
2022-10-23T05:49:16.547Z,1303.61
2022-10-23T05:50:15.522Z,1303.61
2022-10-23T05:51:15.505Z,1303.61
2022-10-23T05:52:15.506Z,1303.61
2022-10-23T05:53:15.484Z,1303.61
2022-10-23T05:54:15.515Z,1303.61
2022-10-23T05:55:15.461Z,1303.61
2022-10-23T05:56:15.454Z,1303.61
2022-10-23T05:57:15.467Z,1303.61
2022-10-23T05:58:15.445Z,1303.61
2022-10-23T05:59:19.048Z,1303.61
2022-10-23T06:00:16.414Z,1303.61
2022-10-23T06:01:15.480Z,1303.61
2022-10-23T06:02:15.511Z,1303.61
2022-10-23T06:03:15.386Z,1303.61
2022-10-23T06:04:15.380Z,1303.61
2022-10-23T06:05:15.359Z,1303.61
2022-10-23T06:06:15.346Z,1303.61
2022-10-23T06:07:15.337Z,1303.61
2022-10-23T06:08:15.324Z,1303.61
2022-10-23T06:09:15.338Z,1303.61
2022-10-23T06:10:15.302Z,1303.61
2022-10-23T06:11:15.296Z,1303.61
2022-10-23T06:12:15.792Z,1303.61
2022-10-23T06:13:15.286Z,1303.61
2022-10-23T06:14:15.265Z,1303.61
2022-10-23T06:15:15.260Z,1303.61
2022-10-23T06:16:15.237Z,1303.61
2022-10-23T06:17:15.236Z,1303.61
2022-10-23T06:18:15.215Z,1303.61
2022-10-23T06:19:15.248Z,1303.61
2022-10-23T06:20:15.206Z,1303.61
2022-10-23T06:21:15.190Z,1303.61
2022-10-23T06:22:15.183Z,1303.61
2022-10-23T06:23:15.156Z,1303.61
2022-10-23T06:24:15.155Z,1303.61
2022-10-23T06:25:15.148Z,1303.61
2022-10-23T06:26:15.130Z,1303.61
2022-10-23T06:27:15.125Z,1303.61
2022-10-23T06:28:17.054Z,1303.61
2022-10-23T06:29:15.112Z,1303.61
2022-10-23T06:30:15.084Z,1303.61
2022-10-23T06:31:15.070Z,1303.61
2022-10-23T06:32:15.093Z,1303.61
2022-10-23T06:33:15.048Z,1303.61
2022-10-23T06:34:15.057Z,1303.61
2022-10-23T06:35:15.028Z,1303.61
2022-10-23T06:36:15.015Z,1303.61
2022-10-23T06:37:15.007Z,1303.61
2022-10-23T06:38:15.019Z,1303.61
2022-10-23T06:39:14.997Z,1303.61
2022-10-23T06:40:14.984Z,1303.61
2022-10-23T06:41:14.968Z,1303.61
2022-10-23T06:42:14.962Z,1303.61
2022-10-23T06:43:14.966Z,1303.61
2022-10-23T06:44:14.948Z,1303.61
2022-10-23T06:45:14.940Z,1303.61
2022-10-23T06:46:14.904Z,1303.61
2022-10-23T06:47:14.898Z,1303.61
2022-10-23T06:48:22.385Z,1303.61
2022-10-23T06:49:14.891Z,1303.61
2022-10-23T06:50:15.694Z,1303.61
2022-10-23T06:51:14.864Z,1303.61
2022-10-23T06:52:34.882Z,1303.61
2022-10-23T06:53:15.831Z,1303.61
2022-10-23T06:54:14.830Z,1303.61
2022-10-23T06:55:14.854Z,1303.61
2022-10-23T06:56:14.797Z,1303.61
2022-10-23T06:57:14.791Z,1303.61
2022-10-23T06:58:14.776Z,1303.61
2022-10-23T06:59:14.832Z,1303.61
2022-10-23T07:00:14.756Z,1303.61
2022-10-23T07:01:15.051Z,1303.61
2022-10-23T07:02:14.740Z,1303.61
2022-10-23T07:03:14.723Z,1303.61
2022-10-23T07:04:14.724Z,1303.61
2022-10-23T07:05:14.733Z,1303.61
2022-10-23T07:06:14.687Z,1303.61
2022-10-23T07:07:14.683Z,1303.61
2022-10-23T07:08:14.667Z,1303.61
2022-10-23T07:09:14.659Z,1303.61
2022-10-23T07:10:14.686Z,1303.61
2022-10-23T07:11:14.646Z,1303.61
2022-10-23T07:12:14.646Z,1303.61
2022-10-23T07:13:14.618Z,1303.61
2022-10-23T07:14:14.600Z,1303.61
2022-10-23T07:15:14.617Z,1303.61
2022-10-23T07:16:14.597Z,1303.61
2022-10-23T07:17:14.594Z,1303.61
2022-10-23T07:18:14.655Z,1303.61
2022-10-23T07:19:14.559Z,1303.61
2022-10-23T07:20:14.535Z,1303.61
2022-10-23T07:21:14.542Z,1303.61
2022-10-23T07:22:15.924Z,1303.61
2022-10-23T07:23:14.509Z,1303.61
2022-10-23T07:24:14.492Z,1303.61
2022-10-23T07:25:14.499Z,1303.61
2022-10-23T07:26:14.515Z,1303.61
2022-10-23T07:27:14.492Z,1303.61
2022-10-23T07:28:14.473Z,1303.61
2022-10-23T07:29:14.456Z,1303.61
2022-10-23T07:30:14.440Z,1303.61
2022-10-23T07:31:14.427Z,1303.61
2022-10-23T07:32:14.407Z,1303.61
2022-10-23T07:33:14.421Z,1303.61
2022-10-23T07:34:14.382Z,1303.61
2022-10-23T22:45:19.389Z,1303.61
2022-10-23T22:46:19.353Z,1276.13
2022-10-23T22:47:19.336Z,1212.12
2022-10-23T22:48:19.319Z,1148.29
2022-10-23T22:49:19.313Z,1086.33
2022-10-23T22:50:19.299Z,1037.13
2022-10-23T22:51:19.307Z,1014.34
2022-10-23T22:52:19.279Z,980.71
2022-10-23T22:53:19.270Z,941.36
2022-10-23T22:54:19.256Z,939.34
2022-10-23T22:55:19.253Z,930.52
2022-10-23T22:56:19.256Z,908.45
2022-10-23T22:57:19.305Z,876.28
2022-10-23T22:58:19.210Z,854.87
2022-10-23T22:59:19.204Z,838.08
2022-10-23T23:00:19.215Z,898.63
2022-10-23T23:01:19.277Z,965.09
2022-10-23T23:02:19.176Z,1013.58
2022-10-23T23:03:19.179Z,1049.44
2022-10-23T23:04:37.232Z,1087.72
2022-10-23T23:05:20.167Z,1127.67
2022-10-23T23:06:19.129Z,1170.66
2022-10-23T23:07:19.118Z,1175.32
2022-10-23T23:08:19.116Z,1199.89
2022-10-23T23:09:19.093Z,1235.77
2022-10-23T23:10:19.077Z,1273.48
2022-10-23T23:11:19.085Z,1300.92
2022-10-23T23:12:19.060Z,1303.61
2022-10-23T23:13:19.049Z,1303.61
2022-10-23T23:14:22.903Z,1303.61
2022-10-23T23:15:20.045Z,1303.61
2022-10-23T23:16:19.045Z,1303.61
2022-10-23T23:17:19.036Z,1303.61
2022-10-23T23:18:18.992Z,1303.61
2022-10-23T23:19:19.007Z,1303.61
2022-10-23T23:20:18.980Z,1303.61
2022-10-23T23:21:18.959Z,1303.61
2022-10-23T23:22:18.994Z,1303.61
2022-10-23T23:23:18.941Z,1303.61
2022-10-23T23:24:18.920Z,1303.61
2022-10-23T23:25:18.915Z,1303.61
2022-10-23T23:26:18.900Z,1303.61
2022-10-23T23:27:18.908Z,1303.61
2022-10-23T23:28:18.895Z,1303.61
2022-10-23T23:29:18.870Z,1303.61
2022-10-23T23:30:18.854Z,1303.61
2022-10-23T23:31:18.869Z,1303.61
2022-10-23T23:32:18.845Z,1303.61
2022-10-23T23:33:18.847Z,1303.61
2022-10-23T23:34:18.813Z,1303.61
2022-10-23T23:35:18.802Z,1303.61
2022-10-23T23:36:18.804Z,1303.61
2022-10-23T23:37:18.780Z,1303.61
2022-10-23T23:38:18.767Z,1303.61
2022-10-23T23:39:18.758Z,1303.61
2022-10-23T23:40:18.743Z,1303.61
2022-10-23T23:41:18.753Z,1303.61
2022-10-23T23:42:18.720Z,1303.61
2022-10-23T23:43:18.712Z,1303.61
2022-10-23T23:44:18.697Z,1303.61
2022-10-23T23:45:18.691Z,1303.61
2022-10-23T23:46:18.692Z,1303.61
2022-10-23T23:47:18.713Z,1303.61
2022-10-23T23:48:18.653Z,1303.61
2022-10-23T23:49:18.682Z,1303.61
2022-10-23T23:50:18.631Z,1303.61
2022-10-23T23:51:18.626Z,1303.61
2022-10-23T23:52:18.627Z,1303.61
2022-10-23T23:53:18.604Z,1303.61
2022-10-23T23:54:18.598Z,1303.61
2022-10-23T23:55:18.590Z,1303.61
2022-10-23T23:56:18.565Z,1303.61
2022-10-23T23:57:18.558Z,1303.61
2022-10-23T23:58:18.542Z,1303.61
2022-10-23T23:59:18.540Z,1303.61
